createdAt,value
2023-02-02T00:00:22.712Z,101499.13
2023-02-02T00:02:49.272Z,101502.53
2023-02-02T00:05:15.957Z,101491.78
2023-02-02T00:07:42.493Z,101488.38
2023-02-02T00:10:09.463Z,101486.25
2023-02-02T00:12:35.977Z,101492.63
2023-02-02T00:15:02.480Z,101497.16
2023-02-02T00:17:28.960Z,101491.22
2023-02-02T00:19:55.390Z,101484.59
2023-02-02T00:22:21.977Z,101478.38
2023-02-02T00:24:48.466Z,101494.66
2023-02-02T00:27:14.922Z,101490.25
2023-02-02T00:29:41.321Z,101490.25
2023-02-02T00:32:07.901Z,101485.88
2023-02-02T00:34:34.365Z,101476.56
2023-02-02T00:37:00.927Z,101496.94
2023-02-02T00:39:27.507Z,101491.31
2023-02-02T00:41:54.688Z,101491.16
2023-02-02T00:44:39.697Z,101490.84
2023-02-02T00:47:06.215Z,101475.56
2023-02-02T00:49:32.699Z,101491.25
2023-02-02T00:52:00.276Z,101484.06
2023-02-02T00:54:26.903Z,101484.28
2023-02-02T00:56:53.462Z,101483.28
2023-02-02T00:59:19.898Z,101481.59
2023-02-02T01:01:46.363Z,101480.44
2023-02-02T01:04:12.958Z,101484.00
2023-02-02T01:06:39.385Z,101472.06
2023-02-02T01:09:05.896Z,101479.91
2023-02-02T01:11:32.377Z,101471.84
2023-02-02T01:13:58.854Z,101464.59
2023-02-02T01:16:25.422Z,101465.44
2023-02-02T01:18:52.434Z,101478.75
2023-02-02T01:21:21.913Z,101473.53
2023-02-02T01:23:48.506Z,101482.97
2023-02-02T01:26:16.224Z,101477.59
2023-02-02T01:28:43.332Z,101485.22
2023-02-02T01:31:12.401Z,101491.78
2023-02-02T01:33:39.330Z,101486.69
2023-02-02T01:36:10.038Z,101483.69
2023-02-02T01:38:36.747Z,101487.13
2023-02-02T01:41:04.640Z,101500.28
2023-02-02T01:43:52.878Z,101501.59
2023-02-02T01:46:22.515Z,101503.44
2023-02-02T01:49:19.963Z,101498.63
2023-02-02T01:51:56.328Z,101502.31
2023-02-02T01:54:35.637Z,101503.50
2023-02-02T01:57:08.120Z,101500.81
2023-02-02T01:59:35.728Z,101505.75
2023-02-02T02:02:03.023Z,101511.69
2023-02-02T02:04:31.295Z,101512.56
2023-02-02T02:06:58.911Z,101508.72
2023-02-02T02:09:25.504Z,101508.28
2023-02-02T02:11:53.546Z,101516.78
2023-02-02T02:14:39.944Z,101508.72
2023-02-02T02:17:21.589Z,101507.41
2023-02-02T02:20:12.881Z,101514.91
2023-02-02T02:23:25.944Z,101507.56
2023-02-02T02:26:34.750Z,101499.63
2023-02-02T02:29:32.305Z,101501.22
2023-02-02T02:32:29.888Z,101503.91
2023-02-02T02:35:05.543Z,101497.00
2023-02-02T02:37:46.717Z,101497.81
2023-02-02T02:40:39.945Z,101496.56
2023-02-02T02:43:15.495Z,101488.91
2023-02-02T02:45:44.572Z,101486.75
2023-02-02T02:48:11.387Z,101496.56
2023-02-02T02:50:38.405Z,101491.00
2023-02-02T02:53:21.505Z,101496.09
2023-02-02T02:55:56.813Z,101495.94
2023-02-02T02:58:49.065Z,101489.59
2023-02-02T03:01:28.518Z,101496.94
2023-02-02T03:04:10.903Z,101501.75
2023-02-02T03:07:04.673Z,101499.72
2023-02-02T03:09:35.950Z,101493.53
2023-02-02T03:12:03.095Z,101502.59
2023-02-02T03:14:34.168Z,101498.03
2023-02-02T03:17:00.612Z,101503.44
2023-02-02T03:19:27.368Z,101516.88
2023-02-02T03:21:53.904Z,101502.47
2023-02-02T03:24:20.388Z,101502.31
2023-02-02T03:26:46.984Z,101506.31
2023-02-02T03:29:13.961Z,101508.72
2023-02-02T03:31:40.479Z,101499.53
2023-02-02T03:34:07.027Z,101500.66
2023-02-02T03:36:33.510Z,101504.50
2023-02-02T03:38:59.961Z,101506.91
2023-02-02T03:41:26.548Z,101514.97
2023-02-02T03:43:53.066Z,101515.69
2023-02-02T03:46:19.577Z,101504.63
2023-02-02T03:48:46.078Z,101520.34
2023-02-02T03:51:14.489Z,101522.44
2023-02-02T03:53:44.915Z,101514.56
2023-02-02T03:56:11.463Z,101515.53
2023-02-02T03:58:37.893Z,101517.06
2023-02-02T04:01:06.882Z,101519.66
2023-02-02T04:03:34.123Z,101509.88
2023-02-02T04:06:00.844Z,101525.03
2023-02-02T04:08:28.474Z,101519.22
2023-02-02T04:10:54.878Z,101524.19
2023-02-02T04:13:21.465Z,101523.34
2023-02-02T04:15:48.201Z,101525.88
2023-02-02T04:18:14.676Z,101525.75
2023-02-02T04:20:41.167Z,101523.34
2023-02-02T04:23:07.700Z,101525.88
2023-02-02T04:25:34.322Z,101521.50
2023-02-02T04:28:00.810Z,101531.84
2023-02-02T04:30:27.250Z,101535.22
2023-02-02T04:32:54.870Z,101537.75
2023-02-02T04:35:21.396Z,101531.97
2023-02-02T04:37:47.949Z,101540.59
2023-02-02T04:40:14.456Z,101533.41
2023-02-02T04:42:40.997Z,101533.09
2023-02-02T04:45:07.939Z,101548.25
2023-02-02T04:47:34.527Z,101545.25
2023-02-02T04:50:00.971Z,101557.91
2023-02-02T04:52:29.042Z,101539.34
2023-02-02T04:54:55.593Z,101543.88
2023-02-02T04:57:22.169Z,101543.00
2023-02-02T04:59:49.203Z,101547.00
2023-02-02T05:02:15.728Z,101541.75
2023-02-02T05:04:42.270Z,101540.06
2023-02-02T05:07:08.959Z,101546.44
2023-02-02T05:09:35.450Z,101551.97
2023-02-02T05:12:01.932Z,101548.28
2023-02-02T05:14:28.359Z,101548.28
2023-02-02T05:16:54.949Z,101555.63
2023-02-02T05:19:21.556Z,101555.63
2023-02-02T05:21:51.133Z,101561.72
2023-02-02T05:24:18.046Z,101560.19
2023-02-02T05:26:44.601Z,101568.13
2023-02-02T05:29:11.094Z,101564.56
2023-02-02T05:31:37.733Z,101567.13
2023-02-02T05:34:06.689Z,101565.13
2023-02-02T05:36:33.253Z,101574.19
2023-02-02T05:39:00.357Z,101565.28
2023-02-02T05:41:26.948Z,101551.13
2023-02-02T05:43:53.527Z,101554.66
2023-02-02T05:46:20.060Z,101549.97
2023-02-02T05:48:46.771Z,101556.25
2023-02-02T05:51:20.234Z,101556.94
2023-02-02T05:53:46.751Z,101556.78
2023-02-02T05:56:15.532Z,101538.66
2023-02-02T05:58:42.971Z,101548.84
2023-02-02T06:01:09.899Z,101552.69
2023-02-02T06:03:36.522Z,101554.09
2023-02-02T06:06:06.580Z,101543.47
2023-02-02T06:08:33.401Z,101541.78
2023-02-02T06:10:59.881Z,101543.47
2023-02-02T06:13:26.594Z,101548.56
2023-02-02T06:15:53.132Z,101554.25
2023-02-02T06:18:19.643Z,101562.75
2023-02-02T06:20:46.983Z,101567.41
2023-02-02T06:23:13.600Z,101572.63
2023-02-02T06:25:40.120Z,101580.44
2023-02-02T06:28:07.697Z,101585.38
2023-02-02T06:30:34.314Z,101591.03
2023-02-02T06:33:00.941Z,101585.38
2023-02-02T06:35:27.702Z,101583.69
2023-02-02T06:37:54.269Z,101587.22
2023-02-02T06:40:20.825Z,101590.75
2023-02-02T06:42:47.302Z,101590.75
2023-02-02T06:45:13.858Z,101596.13
2023-02-02T06:47:40.440Z,101597.25
2023-02-02T06:50:08.705Z,101590.19
2023-02-02T06:52:35.317Z,101603.34
2023-02-02T06:55:01.858Z,101601.78
2023-02-02T06:57:28.383Z,101593.16
2023-02-02T06:59:54.898Z,101591.16
2023-02-02T07:02:23.268Z,101601.09
2023-02-02T07:04:49.780Z,101606.63
2023-02-02T07:07:16.302Z,101594.84
2023-02-02T07:09:43.071Z,101600.81
2023-02-02T07:12:09.903Z,101600.38
2023-02-02T07:14:36.423Z,101604.75
2023-02-02T07:17:02.879Z,101606.31
2023-02-02T07:19:29.384Z,101615.81
2023-02-02T07:21:55.860Z,101616.53
2023-02-02T07:24:22.454Z,101606.88
2023-02-02T07:26:48.998Z,101611.13
2023-02-02T07:29:15.628Z,101621.75
2023-02-02T07:31:42.270Z,101618.78
2023-02-02T07:34:08.814Z,101621.34
2023-02-02T07:36:35.943Z,101622.34
2023-02-02T07:39:04.686Z,101628.44
2023-02-02T07:41:31.803Z,101615.56
2023-02-02T07:43:58.380Z,101632.97
2023-02-02T07:46:25.143Z,101625.13
2023-02-02T07:48:55.113Z,101631.22
2023-02-02T07:51:21.988Z,101625.28
2023-02-02T07:53:51.935Z,101628.38
2023-02-02T07:56:21.677Z,101631.06
2023-02-02T07:58:48.546Z,101643.94
2023-02-02T08:01:16.050Z,101630.91
2023-02-02T08:03:43.318Z,101643.94
2023-02-02T08:06:13.274Z,101638.00
2023-02-02T08:08:40.108Z,101638.31
2023-02-02T08:11:13.362Z,101629.50
2023-02-02T08:13:41.856Z,101636.00
2023-02-02T08:16:09.058Z,101620.44
2023-02-02T08:18:36.247Z,101633.47
2023-02-02T08:21:04.295Z,101632.63
2023-02-02T08:23:31.334Z,101641.38
2023-02-02T08:26:13.867Z,101632.03
2023-02-02T08:28:41.528Z,101647.34
2023-02-02T08:31:16.155Z,101645.34
2023-02-02T08:33:43.076Z,101646.50
2023-02-02T08:36:17.797Z,101650.03
2023-02-02T08:38:44.655Z,101647.06
2023-02-02T08:41:14.003Z,101664.19
2023-02-02T08:43:41.361Z,101656.97
2023-02-02T08:46:11.209Z,101657.50
2023-02-02T08:48:38.301Z,101660.91
2023-02-02T08:51:06.950Z,101657.22
2023-02-02T08:53:34.221Z,101657.22
2023-02-02T08:56:16.267Z,101666.31
2023-02-02T08:58:58.018Z,101670.53
2023-02-02T09:01:28.179Z,101677.78
2023-02-02T09:04:16.193Z,101664.75
2023-02-02T09:06:43.201Z,101680.19
2023-02-02T09:09:12.836Z,101681.88
2023-02-02T09:11:40.077Z,101665.28
2023-02-02T09:14:07.668Z,101668.00
2023-02-02T09:16:35.502Z,101679.06
2023-02-02T09:19:02.645Z,101674.38
2023-02-02T09:21:29.276Z,101692.09
2023-02-02T09:23:55.802Z,101682.88
2023-02-02T09:26:25.990Z,101700.44
2023-02-02T09:28:55.275Z,101691.47
2023-02-02T09:31:23.460Z,101704.94
2023-02-02T09:33:50.567Z,101703.09
2023-02-02T09:36:22.623Z,101689.25
2023-02-02T09:38:50.674Z,101708.50
2023-02-02T09:41:38.155Z,101711.03
2023-02-02T09:44:22.784Z,101705.34
2023-02-02T09:47:01.453Z,101718.53
2023-02-02T09:49:44.942Z,101712.72
2023-02-02T09:52:23.324Z,101714.41
2023-02-02T09:54:54.795Z,101728.31
2023-02-02T09:57:28.339Z,101727.44
2023-02-02T09:59:55.723Z,101727.44
2023-02-02T10:02:38.617Z,101744.75
2023-02-02T10:05:15.434Z,101750.97
2023-02-02T10:07:48.198Z,101753.00
2023-02-02T10:10:20.587Z,101758.38
2023-02-02T10:13:05.931Z,101750.72
2023-02-02T10:16:01.805Z,101767.72
2023-02-02T10:18:45.163Z,101770.03
2023-02-02T10:21:29.042Z,101766.03
2023-02-02T10:23:57.191Z,101765.91
2023-02-02T10:26:38.709Z,101786.91
2023-02-02T10:29:26.299Z,101772.28
2023-02-02T10:32:24.387Z,101783.06
2023-02-02T10:35:17.179Z,101787.88
2023-02-02T10:37:59.859Z,101799.47
2023-02-02T10:40:38.281Z,101794.38
2023-02-02T10:43:47.245Z,101794.94
2023-02-02T10:46:30.414Z,101790.41
2023-02-02T10:49:29.252Z,101790.13
2023-02-02T10:52:13.782Z,101798.03
2023-02-02T10:55:07.719Z,101796.03
2023-02-02T10:57:50.860Z,101790.63
2023-02-02T11:00:39.025Z,101796.16
2023-02-02T11:03:07.162Z,101803.38
2023-02-02T11:05:52.725Z,101801.38
2023-02-02T11:08:25.091Z,101806.19
2023-02-02T11:10:54.725Z,101797.06
2023-02-02T11:13:33.763Z,101797.22
2023-02-02T11:16:15.570Z,101792.78
2023-02-02T11:18:44.339Z,101791.91
2023-02-02T11:21:21.871Z,101801.09
2023-02-02T11:23:59.068Z,101794.00
2023-02-02T11:26:27.580Z,101796.00
2023-02-02T11:28:56.176Z,101799.25
2023-02-02T11:31:41.250Z,101787.16
2023-02-02T11:34:20.592Z,101798.09
2023-02-02T11:37:00.535Z,101787.31
2023-02-02T11:39:28.508Z,101786.50
2023-02-02T11:42:00.920Z,101792.00
2023-02-02T11:44:29.378Z,101793.88
2023-02-02T11:46:57.363Z,101806.19
2023-02-02T11:49:24.457Z,101811.06
2023-02-02T11:52:04.415Z,101792.78
2023-02-02T11:54:35.841Z,101792.78
2023-02-02T11:57:09.593Z,101791.97
2023-02-02T11:59:39.315Z,101776.22
2023-02-02T12:02:25.614Z,101784.69
2023-02-02T12:04:56.479Z,101775.34
2023-02-02T12:07:29.144Z,101787.22
2023-02-02T12:10:13.543Z,101778.41
2023-02-02T12:12:53.484Z,101777.03
2023-02-02T12:15:31.787Z,101783.81
2023-02-02T12:18:22.909Z,101772.41
2023-02-02T12:21:04.663Z,101772.13
2023-02-02T12:23:39.896Z,101774.25
2023-02-02T12:26:20.130Z,101764.41
2023-02-02T12:28:54.256Z,101764.81
2023-02-02T12:31:32.950Z,101775.03
2023-02-02T12:34:15.961Z,101775.69
2023-02-02T12:37:13.611Z,101769.69
2023-02-02T12:40:21.675Z,101771.09
2023-02-02T12:43:13.457Z,101781.88
2023-02-02T12:45:51.068Z,101785.50
2023-02-02T12:48:39.135Z,101779.72
2023-02-02T12:51:31.215Z,101761.59
2023-02-02T12:54:34.643Z,101775.25
2023-02-02T12:57:19.910Z,101779.50
2023-02-02T13:00:23.980Z,101781.53
2023-02-02T13:03:05.967Z,101778.56
2023-02-02T13:05:55.533Z,101784.53
2023-02-02T13:08:35.987Z,101788.75
2023-02-02T13:11:30.909Z,101788.00
2023-02-02T13:14:08.399Z,101787.00
2023-02-02T13:16:38.082Z,101789.84
2023-02-02T13:19:11.403Z,101784.28
2023-02-02T13:21:39.815Z,101793.31
2023-02-02T13:24:11.992Z,101790.75
2023-02-02T13:26:42.747Z,101793.31
2023-02-02T13:29:22.214Z,101803.34
2023-02-02T13:32:04.335Z,101776.94
2023-02-02T13:34:46.836Z,101802.63
2023-02-02T13:37:19.175Z,101806.34
2023-02-02T13:39:58.458Z,101805.69
2023-02-02T13:42:49.413Z,101799.41
2023-02-02T13:45:34.667Z,101800.56
2023-02-02T13:48:41.339Z,101804.56
2023-02-02T13:51:42.313Z,101802.28
2023-02-02T13:54:20.759Z,101798.56
2023-02-02T13:57:02.846Z,101803.13
2023-02-02T13:59:57.608Z,101802.88
2023-02-02T14:02:39.830Z,101802.00
2023-02-02T14:05:08.640Z,101788.13
2023-02-02T14:07:41.913Z,101801.50
2023-02-02T14:10:32.625Z,101812.00
2023-02-02T14:13:34.494Z,101815.69
2023-02-02T14:16:05.575Z,101809.97
2023-02-02T14:18:55.925Z,101802.81
2023-02-02T14:21:31.470Z,101806.28
2023-02-02T14:24:04.680Z,101797.47
2023-02-02T14:26:43.586Z,101805.69
2023-02-02T14:29:35.675Z,101817.59
2023-02-02T14:32:23.827Z,101814.09
2023-02-02T14:34:58.968Z,101813.38
2023-02-02T14:37:28.345Z,101799.88
2023-02-02T14:40:07.097Z,101802.72
2023-02-02T14:43:42.508Z,101805.56
2023-02-02T14:46:14.913Z,101818.16
2023-02-02T14:48:54.018Z,101816.84
2023-02-02T14:51:29.361Z,101823.78
2023-02-02T14:54:02.511Z,101818.69
2023-02-02T14:56:54.299Z,101826.94
2023-02-02T14:59:36.067Z,101824.25
2023-02-02T15:02:09.767Z,101828.97
2023-02-02T15:04:36.484Z,101835.75
2023-02-02T15:07:24.579Z,101837.44
2023-02-02T15:09:56.586Z,101840.94
2023-02-02T15:12:29.412Z,101836.34
2023-02-02T15:15:20.485Z,101840.06
2023-02-02T15:17:59.986Z,101839.78
2023-02-02T15:20:27.418Z,101847.16
2023-02-02T15:23:06.030Z,101842.06
2023-02-02T15:25:40.651Z,101841.53
2023-02-02T15:28:41.220Z,101847.91
2023-02-02T15:31:10.663Z,101848.09
2023-02-02T15:33:39.552Z,101841.69
2023-02-02T15:36:13.489Z,101849.09
2023-02-02T15:38:43.042Z,101843.97
2023-02-02T15:41:20.528Z,101855.78
2023-02-02T15:43:47.302Z,101853.09
2023-02-02T15:46:24.184Z,101864.03
2023-02-02T15:49:32.600Z,101861.50
2023-02-02T15:52:11.609Z,101866.03
2023-02-02T15:54:38.517Z,101866.88
2023-02-02T15:57:24.943Z,101871.13
2023-02-02T15:59:51.794Z,101872.69
2023-02-02T16:02:36.479Z,101880.09
2023-02-02T16:05:22.187Z,101880.09
2023-02-02T16:08:03.759Z,101886.50
2023-02-02T16:10:31.343Z,101888.19
2023-02-02T16:12:58.500Z,101900.69
2023-02-02T16:15:28.479Z,101891.59
2023-02-02T16:18:07.904Z,101893.28
2023-02-02T16:20:37.266Z,101895.44
2023-02-02T16:23:15.432Z,101883.69
2023-02-02T16:25:51.293Z,101894.03
2023-02-02T16:28:21.837Z,101897.03
2023-02-02T16:30:49.336Z,101897.34
2023-02-02T16:33:34.893Z,101909.69
2023-02-02T16:36:09.968Z,101909.00
2023-02-02T16:38:39.500Z,101896.06
2023-02-02T16:41:08.814Z,101898.03
2023-02-02T16:43:37.997Z,101903.44
2023-02-02T16:46:16.457Z,101908.84
2023-02-02T16:48:55.394Z,101911.41
2023-02-02T16:51:24.198Z,101898.50
2023-02-02T16:54:05.908Z,101910.38
2023-02-02T16:56:41.805Z,101912.41
2023-02-02T16:59:27.745Z,101911.09
2023-02-02T17:01:58.103Z,101903.59
2023-02-02T17:04:31.005Z,101918.47
2023-02-02T17:07:07.337Z,101924.03
2023-02-02T17:09:42.094Z,101923.06
2023-02-02T17:12:37.466Z,101923.59
2023-02-02T17:15:28.132Z,101924.44
2023-02-02T17:17:55.033Z,101928.28
2023-02-02T17:20:23.014Z,101936.56
2023-02-02T17:23:09.724Z,101921.34
2023-02-02T17:25:42.295Z,101917.53
2023-02-02T17:28:15.797Z,101932.69
2023-02-02T17:30:44.166Z,101934.38
2023-02-02T17:33:16.233Z,101944.22
2023-02-02T17:35:54.136Z,101945.94
2023-02-02T17:38:22.344Z,101940.53
2023-02-02T17:40:49.869Z,101919.28
2023-02-02T17:43:16.621Z,101940.84
2023-02-02T17:45:43.571Z,101946.94
2023-02-02T17:48:12.171Z,101948.63
2023-02-02T17:50:40.054Z,101952.34
2023-02-02T17:53:10.718Z,101953.31
2023-02-02T17:55:39.862Z,101953.31
2023-02-02T17:58:06.460Z,101959.34
2023-02-02T18:00:33.081Z,101965.56
2023-02-02T18:03:09.369Z,101976.50
2023-02-02T18:05:37.922Z,101981.50
2023-02-02T18:08:04.896Z,101974.25
2023-02-02T18:10:31.454Z,101980.09
2023-02-02T18:12:58.116Z,101974.13
2023-02-02T18:15:24.860Z,101975.00
2023-02-02T18:17:51.526Z,101978.97
2023-02-02T18:20:19.262Z,101980.97
2023-02-02T18:22:48.221Z,101982.66
2023-02-02T18:25:15.242Z,101988.34
2023-02-02T18:27:42.081Z,101974.31
2023-02-02T18:30:09.766Z,101986.22
2023-02-02T18:32:38.337Z,101994.50
2023-02-02T18:35:05.886Z,101991.50
2023-02-02T18:37:32.556Z,101991.50
2023-02-02T18:39:59.073Z,101991.66
2023-02-02T18:42:29.776Z,101991.09
2023-02-02T18:44:56.588Z,101987.41
2023-02-02T18:47:23.383Z,101981.28
2023-02-02T18:49:49.910Z,101978.16
2023-02-02T18:52:16.539Z,101968.53
2023-02-02T18:54:43.153Z,101968.91
2023-02-02T18:57:13.815Z,101982.97
2023-02-02T18:59:40.876Z,101972.91
2023-02-02T19:02:12.322Z,101987.38
2023-02-02T19:04:38.886Z,101979.13
2023-02-02T19:07:23.962Z,101970.75
2023-02-02T19:09:50.589Z,101973.88
2023-02-02T19:12:17.228Z,101971.03
2023-02-02T19:14:45.197Z,101972.59
2023-02-02T19:17:14.494Z,101975.97
2023-02-02T19:19:42.913Z,101968.59
2023-02-02T19:22:20.039Z,101968.59
2023-02-02T19:24:47.063Z,101969.59
2023-02-02T19:27:23.245Z,101972.16
2023-02-02T19:29:52.993Z,101962.91
2023-02-02T19:32:23.105Z,101976.25
2023-02-02T19:34:52.492Z,101978.09
2023-02-02T19:37:25.962Z,101982.66
2023-02-02T19:40:10.459Z,101978.81
2023-02-02T19:42:45.403Z,101976.78
2023-02-02T19:45:31.110Z,101981.91
2023-02-02T19:48:00.261Z,101979.50
2023-02-02T19:50:31.646Z,101980.06
2023-02-02T19:52:58.282Z,101979.19
2023-02-02T19:55:36.279Z,101985.31
2023-02-02T19:58:15.716Z,101978.78
2023-02-02T20:00:42.475Z,101979.63
2023-02-02T20:03:17.362Z,101973.50
2023-02-02T20:05:49.302Z,101983.47
2023-02-02T20:08:35.655Z,101987.00
2023-02-02T20:11:23.522Z,101976.50
2023-02-02T20:13:51.161Z,101977.50
2023-02-02T20:16:22.965Z,101977.81
2023-02-02T20:18:53.656Z,101977.94
2023-02-02T20:21:40.920Z,101968.44
2023-02-02T20:24:16.283Z,101976.78
2023-02-02T20:26:43.016Z,101966.63
2023-02-02T20:29:20.181Z,101973.84
2023-02-02T20:31:47.380Z,101967.19
2023-02-02T20:34:27.961Z,101977.00
2023-02-02T20:37:22.308Z,101971.03
2023-02-02T20:39:56.095Z,101980.13
2023-02-02T20:42:23.447Z,101976.16
2023-02-02T20:44:50.806Z,101964.34
2023-02-02T20:47:18.042Z,101983.97
2023-02-02T20:49:45.292Z,101981.97
2023-02-02T20:52:21.278Z,101990.06
2023-02-02T20:54:48.256Z,101990.06
2023-02-02T20:57:14.788Z,101991.63
2023-02-02T20:59:41.213Z,101991.19
2023-02-02T21:02:08.063Z,101984.06
2023-02-02T21:04:34.664Z,101984.78
2023-02-02T21:07:01.209Z,101988.19
2023-02-02T21:09:27.815Z,101990.19
2023-02-02T21:11:54.375Z,101995.28
2023-02-02T21:14:20.929Z,101988.88
2023-02-02T21:16:47.596Z,101982.34
2023-02-02T21:19:14.336Z,101995.97
2023-02-02T21:21:40.892Z,101992.84
2023-02-02T21:24:07.559Z,101988.75
2023-02-02T21:26:34.302Z,101999.38
2023-02-02T21:29:00.952Z,102006.09
2023-02-02T21:31:27.772Z,102010.47
2023-02-02T21:33:54.493Z,102006.78
2023-02-02T21:36:34.405Z,102006.09
2023-02-02T21:39:25.024Z,102007.09
2023-02-02T21:42:15.423Z,101958.56
2023-02-02T21:45:16.681Z,102018.72
2023-02-02T21:47:57.990Z,102023.97
2023-02-02T21:50:31.697Z,102027.25
2023-02-02T21:53:11.506Z,102031.78
2023-02-02T21:55:39.177Z,102023.41
2023-02-02T21:58:18.791Z,102026.38
2023-02-02T22:00:46.081Z,102036.88
2023-02-02T22:03:38.916Z,102036.88
2023-02-02T22:06:26.312Z,102040.16
2023-02-02T22:09:00.986Z,102040.31
2023-02-02T22:11:32.930Z,102041.84
2023-02-02T22:14:12.614Z,102035.59
2023-02-02T22:16:43.619Z,102027.94
2023-02-02T22:19:32.296Z,102027.94
2023-02-02T22:22:32.516Z,102042.09
2023-02-02T22:25:02.193Z,102048.50
2023-02-02T22:27:50.277Z,102030.34
2023-02-02T22:30:37.907Z,102019.41
2023-02-02T22:33:06.353Z,102024.66
2023-02-02T22:35:34.167Z,102029.31
2023-02-02T22:38:02.220Z,102033.72
2023-02-02T22:40:29.218Z,102023.78
2023-02-02T22:43:02.225Z,102025.91
2023-02-02T22:45:29.345Z,102027.94
2023-02-02T22:47:55.870Z,102034.00
2023-02-02T22:50:25.654Z,102030.63
2023-02-02T22:52:52.762Z,102025.09
2023-02-02T22:55:20.577Z,102011.31
2023-02-02T22:57:47.200Z,102025.38
2023-02-02T23:00:17.622Z,102037.13
2023-02-02T23:02:44.261Z,102028.75
2023-02-02T23:05:13.268Z,102022.66
2023-02-02T23:07:39.960Z,102012.16
2023-02-02T23:10:07.559Z,102019.69
2023-02-02T23:12:34.562Z,102019.41
2023-02-02T23:15:01.016Z,102019.09
2023-02-02T23:17:27.542Z,102018.38
2023-02-02T23:19:54.669Z,102012.69
2023-02-02T23:22:21.171Z,102011.00
2023-02-02T23:24:50.745Z,102021.53
2023-02-02T23:27:17.187Z,102010.00
2023-02-02T23:29:43.713Z,102015.25
2023-02-02T23:32:10.180Z,102000.78
2023-02-02T23:34:36.628Z,102001.75
2023-02-02T23:37:03.061Z,102006.19
2023-02-02T23:39:29.508Z,102005.63
2023-02-02T23:41:56.052Z,101999.34
2023-02-02T23:44:22.588Z,101999.78
2023-02-02T23:46:50.212Z,102005.19
2023-02-02T23:49:17.435Z,102010.72
2023-02-02T23:51:44.199Z,102004.03
2023-02-02T23:54:13.323Z,102001.31
2023-02-02T23:56:41.619Z,102006.19
2023-02-02T23:59:09.372Z,102001.63
